Meteo

Condividi:

Previsioni per il volo, messo gentilmente a disposizione da www.datameteo.com

per info sul servizio, contattare info@datameteo.it


Metar LIMZ

Available data for LIMZ from the past 2 hours
LEVALDIGI
Metar
LIMZ 261350Z 01008KT 340V040 9999 BKN010 17/07 Q1012

13:50 UTC

Wind: 10° 8kt

Visibility: 9999 m

Sky: BKN 1000 ft

Temp: 17 deg C / 62.6 deg F

Dewpoint: 7 deg C / 44.6 deg F

Pressure: 1012 hPa

TAF
TAF LIMZ 261100Z 2612/2712 24007KT 9999 SCT025 SCT070 PROB40 TEMPO 2612/2618 4000 TSRA

Gif Infrarosso


Gif Nuvole


Ultima immagine Infrarosso


Ultima immagine Nuvole


Gif Pioggia

Condividi: